Time;durP1;ratioP1;P1;durP2;ratioP2;P2;SDS_P1;SDS_P2;PMS_P1;PMS_P2;Temp;Humidity;BMP_temperature;BMP_pressure;BME280_temperature;BME280_humidity;BME280_pressure;Samples;Min_cycle;Max_cycle;Signal;HPM_P1;HPM_P2
2022/10/23 00:02:45;;;;;;;15.77;12.60;;;;;;;;;;4909206;29;20457;-73
2022/10/23 00:05:40;;;;;;;13.03;11.60;;;;;;;;;;4905413;29;20589;-73
2022/10/23 00:08:30;;;;;;;17.13;12.13;;;;;;;;;;4903223;29;20502;-73
2022/10/23 00:11:20;;;;;;;16.70;12.90;;;;;;;;;;4908186;29;20481;-73
2022/10/23 00:14:09;;;;;;;14.53;12.43;;;;;;;;;;4887994;29;20477;-73
2022/10/23 00:16:58;;;;;;;13.20;11.53;;;;;;;;;;4906848;29;20473;-73
2022/10/23 00:19:49;;;;;;;15.50;12.60;;;;;;;;;;4910675;29;20496;-72
2022/10/23 00:22:40;;;;;;;17.47;12.37;;;;;;;;;;4906339;29;20464;-73
2022/10/23 00:25:34;;;;;;;14.80;12.00;;;;;;;;;;4902726;29;20461;-72
2022/10/23 00:28:22;;;;;;;15.50;12.40;;;;;;;;;;4903098;29;20477;-72
2022/10/23 00:31:14;;;;;;;15.20;11.80;;;;;;;;;;4902942;29;20857;-72
2022/10/23 00:34:07;;;;;;;12.67;11.10;;;;;;;;;;4895378;29;20446;-72
2022/10/23 00:36:58;;;;;;;13.90;11.90;;;;;;;;;;4894799;29;20460;-72
2022/10/23 00:39:48;;;;;;;16.60;12.60;;;;;;;;;;4906480;29;20480;-72
2022/10/23 00:42:36;;;;;;;17.90;12.37;;;;;;;;;;4905087;29;20458;-72
2022/10/23 00:45:25;;;;;;;13.47;11.90;;;;;;;;;;4906189;29;20853;-72
2022/10/23 00:48:17;;;;;;;13.23;11.83;;;;;;;;;;4906349;29;20861;-72
2022/10/23 00:51:19;;;;;;;14.77;12.07;;;;;;;;;;4897235;29;20494;-72
2022/10/23 00:54:13;;;;;;;15.57;11.67;;;;;;;;;;4904673;29;20464;-72
2022/10/23 00:57:19;;;;;;;21.73;11.40;;;;;;;;;;4900397;29;20465;-72
2022/10/23 01:00:08;;;;;;;13.73;12.40;;;;;;;;;;4898326;29;20508;-72
2022/10/23 01:03:00;;;;;;;12.53;11.33;;;;;;;;;;4897956;29;20629;-72
2022/10/23 01:05:53;;;;;;;12.00;10.73;;;;;;;;;;4908547;29;20455;-72
2022/10/23 01:08:50;;;;;;;14.23;11.70;;;;;;;;;;4895489;29;22216;-72
2022/10/23 01:11:42;;;;;;;14.47;11.80;;;;;;;;;;4901616;29;20501;-72
2022/10/23 01:14:40;;;;;;;12.60;11.30;;;;;;;;;;4900559;29;20445;-72
2022/10/23 01:17:38;;;;;;;13.77;12.30;;;;;;;;;;4908064;29;21035;-72
2022/10/23 01:20:44;;;;;;;13.47;11.83;;;;;;;;;;4902062;29;20469;-72
2022/10/23 01:23:48;;;;;;;14.10;12.00;;;;;;;;;;4902858;29;20473;-72
2022/10/23 01:26:57;;;;;;;13.60;12.20;;;;;;;;;;4900182;29;20465;-72
2022/10/23 01:29:48;;;;;;;12.13;10.67;;;;;;;;;;4899987;29;20481;-72
2022/10/23 01:32:43;;;;;;;12.20;10.53;;;;;;;;;;4901335;29;20482;-72
2022/10/23 01:35:36;;;;;;;13.83;11.20;;;;;;;;;;4894438;29;20644;-75
2022/10/23 01:38:28;;;;;;;12.33;11.03;;;;;;;;;;4896527;29;20482;-74
2022/10/23 01:41:21;;;;;;;14.57;12.50;;;;;;;;;;4893225;29;20470;-75
2022/10/23 01:44:12;;;;;;;13.33;11.73;;;;;;;;;;4897952;29;20465;-75
2022/10/23 01:47:08;;;;;;;13.77;12.00;;;;;;;;;;4893743;29;20465;-74
2022/10/23 01:49:58;;;;;;;13.47;12.17;;;;;;;;;;4896267;29;20481;-74
2022/10/23 01:52:49;;;;;;;16.43;12.20;;;;;;;;;;4896173;29;20491;-75
2022/10/23 01:55:43;;;;;;;15.33;13.53;;;;;;;;;;4892238;29;20916;-72
2022/10/23 01:58:35;;;;;;;14.73;11.40;;;;;;;;;;4897315;29;21357;-72
2022/10/23 02:01:33;;;;;;;15.27;12.53;;;;;;;;;;4906356;29;20457;-72
2022/10/23 02:04:34;;;;;;;14.53;12.07;;;;;;;;;;4897734;29;20456;-72
2022/10/23 02:07:28;;;;;;;15.23;12.90;;;;;;;;;;4900214;29;20685;-72
2022/10/23 02:10:20;;;;;;;12.97;11.57;;;;;;;;;;4900807;29;20866;-72
2022/10/23 02:13:20;;;;;;;14.13;12.10;;;;;;;;;;4901442;29;20575;-72
2022/10/23 02:16:13;;;;;;;13.97;12.57;;;;;;;;;;4908048;29;20442;-72
2022/10/23 02:19:15;;;;;;;16.27;11.53;;;;;;;;;;4906943;29;20499;-72
2022/10/23 02:22:11;;;;;;;15.20;11.63;;;;;;;;;;4912898;29;20452;-72
2022/10/23 02:25:04;;;;;;;16.93;12.27;;;;;;;;;;4895376;29;20458;-72
2022/10/23 02:27:55;;;;;;;14.00;11.90;;;;;;;;;;4893216;29;20471;-72
2022/10/23 02:30:45;;;;;;;14.47;12.67;;;;;;;;;;4906727;29;20449;-72
2022/10/23 02:33:40;;;;;;;14.47;12.10;;;;;;;;;;4897133;29;20576;-74
2022/10/23 02:36:41;;;;;;;15.83;13.07;;;;;;;;;;4904263;29;20458;-73
2022/10/23 02:39:32;;;;;;;14.03;12.60;;;;;;;;;;4903907;29;20481;-73
2022/10/23 02:42:23;;;;;;;14.67;11.70;;;;;;;;;;4897702;29;20453;-73
2022/10/23 02:45:16;;;;;;;16.10;11.77;;;;;;;;;;4899010;29;20457;-73
2022/10/23 02:48:15;;;;;;;13.70;12.30;;;;;;;;;;4911778;29;20488;-73
2022/10/23 02:51:15;;;;;;;15.40;12.40;;;;;;;;;;4902475;29;20496;-73
2022/10/23 02:54:07;;;;;;;13.60;12.20;;;;;;;;;;4901830;29;20481;-73
2022/10/23 02:57:02;;;;;;;12.27;10.93;;;;;;;;;;4903246;29;20560;-72
2022/10/23 02:59:55;;;;;;;17.57;12.47;;;;;;;;;;4907837;29;20992;-72
2022/10/23 03:02:46;;;;;;;12.43;10.60;;;;;;;;;;4904444;29;20446;-73
2022/10/23 03:05:40;;;;;;;12.50;11.30;;;;;;;;;;4902378;29;20464;-73
2022/10/23 03:08:40;;;;;;;12.67;11.43;;;;;;;;;;4897072;29;22499;-72
2022/10/23 03:11:37;;;;;;;13.37;10.50;;;;;;;;;;4896566;29;20548;-73
2022/10/23 03:14:27;;;;;;;12.33;10.93;;;;;;;;;;4914641;29;20453;-72
2022/10/23 03:17:19;;;;;;;12.13;10.40;;;;;;;;;;4907629;29;20459;-73
2022/10/23 03:20:15;;;;;;;11.37;10.27;;;;;;;;;;4903854;29;20991;-72
2022/10/23 03:23:05;;;;;;;12.67;11.37;;;;;;;;;;4904561;29;20451;-73
2022/10/23 03:25:56;;;;;;;13.57;11.73;;;;;;;;;;4903119;29;20458;-73
2022/10/23 03:28:49;;;;;;;12.33;10.73;;;;;;;;;;4900704;29;20486;-72
2022/10/23 03:31:39;;;;;;;12.27;11.07;;;;;;;;;;4904351;29;21111;-73
2022/10/23 03:34:34;;;;;;;14.20;11.27;;;;;;;;;;4895775;29;20554;-73
2022/10/23 03:37:25;;;;;;;11.70;10.30;;;;;;;;;;4905658;29;20453;-72
2022/10/23 03:40:14;;;;;;;12.10;10.80;;;;;;;;;;4900142;29;20464;-73
2022/10/23 03:43:08;;;;;;;11.87;10.70;;;;;;;;;;4904309;29;20522;-73
2022/10/23 03:45:56;;;;;;;12.00;10.33;;;;;;;;;;4903316;29;20456;-73
2022/10/23 03:48:49;;;;;;;12.20;10.77;;;;;;;;;;4907443;29;23075;-73
2022/10/23 03:51:40;;;;;;;16.60;11.20;;;;;;;;;;4903602;29;20504;-73
2022/10/23 03:54:34;;;;;;;11.63;10.43;;;;;;;;;;4897023;29;20488;-73
2022/10/23 03:57:27;;;;;;;12.80;11.50;;;;;;;;;;4896654;29;20462;-73
2022/10/23 04:00:21;;;;;;;11.97;10.80;;;;;;;;;;4900990;29;20962;-72
2022/10/23 04:03:10;;;;;;;14.77;11.73;;;;;;;;;;4901906;29;20449;-73
2022/10/23 04:06:02;;;;;;;13.63;12.20;;;;;;;;;;4894787;29;20466;-73
2022/10/23 04:08:50;;;;;;;13.23;11.83;;;;;;;;;;4899305;29;20477;-73
2022/10/23 04:11:41;;;;;;;15.20;12.83;;;;;;;;;;4900303;29;20453;-73
2022/10/23 04:14:36;;;;;;;15.70;12.10;;;;;;;;;;4903729;29;21015;-73
2022/10/23 04:17:29;;;;;;;14.50;12.20;;;;;;;;;;4905680;29;20562;-74
2022/10/23 04:20:20;;;;;;;15.90;12.60;;;;;;;;;;4933402;23;20507;-70
2022/10/23 04:23:11;;;;;;;14.07;12.67;;;;;;;;;;4934829;29;20460;-70
2022/10/23 04:26:02;;;;;;;13.10;11.70;;;;;;;;;;4932638;28;20462;-70
2022/10/23 04:28:53;;;;;;;13.20;11.47;;;;;;;;;;4932556;28;20524;-72
2022/10/23 04:31:51;;;;;;;15.37;12.40;;;;;;;;;;4909541;29;20459;-71
2022/10/23 04:34:42;;;;;;;14.33;12.17;;;;;;;;;;4910373;29;20489;-71
2022/10/23 04:37:34;;;;;;;14.33;11.93;;;;;;;;;;4907796;29;20484;-72
2022/10/23 04:40:25;;;;;;;13.93;10.90;;;;;;;;;;4905202;29;20489;-70
2022/10/23 04:43:13;;;;;;;15.23;11.23;;;;;;;;;;4913479;29;20447;-71
2022/10/23 04:46:04;;;;;;;14.63;11.50;;;;;;;;;;4914546;29;20460;-71
2022/10/23 04:48:54;;;;;;;15.10;12.30;;;;;;;;;;4914362;29;20469;-71
2022/10/23 04:51:42;;;;;;;12.30;10.90;;;;;;;;;;4919458;28;20887;-71
2022/10/23 04:54:38;;;;;;;14.00;11.00;;;;;;;;;;4922362;29;20485;-72
2022/10/23 04:57:39;;;;;;;;;;;;;;;;;;;;;
2022/10/23 05:00:36;;;;;;;12.00;10.70;;;;;;;;;;4916905;29;20479;-71
2022/10/23 05:03:28;;;;;;;11.13;10.03;;;;;;;;;;4911603;29;20471;-71
2022/10/23 05:06:19;;;;;;;11.70;10.50;;;;;;;;;;4924297;29;20476;-73
2022/10/23 05:09:15;;;;;;;11.40;10.20;;;;;;;;;;4923214;29;20486;-71
2022/10/23 05:12:06;;;;;;;15.10;11.57;;;;;;;;;;4912820;29;20464;-71
2022/10/23 05:14:57;;;;;;;11.40;10.03;;;;;;;;;;4914668;29;20484;-71
2022/10/23 05:17:57;;;;;;;12.67;11.33;;;;;;;;;;4923926;29;20889;-71
2022/10/23 05:20:49;;;;;;;12.47;10.40;;;;;;;;;;4917084;29;20497;-71
2022/10/23 05:23:38;;;;;;;11.20;9.40;;;;;;;;;;4919815;29;20464;-71
2022/10/23 05:26:31;;;;;;;11.00;9.20;;;;;;;;;;4918861;29;20464;-71
2022/10/23 05:29:21;;;;;;;9.77;8.87;;;;;;;;;;4922472;29;20495;-71
2022/10/23 05:32:16;;;;;;;11.33;10.23;;;;;;;;;;4924665;29;20547;-71
2022/10/23 05:38:14;;;;;;;10.93;9.73;;;;;;;;;;4924116;29;20543;-71
2022/10/23 05:41:04;;;;;;;10.53;9.53;;;;;;;;;;4929167;29;20490;-71
2022/10/23 05:43:54;;;;;;;15.63;9.27;;;;;;;;;;4924494;29;20491;-71
2022/10/23 05:46:44;;;;;;;10.77;9.00;;;;;;;;;;4917234;29;20456;-71
2022/10/23 05:49:35;;;;;;;9.37;8.20;;;;;;;;;;4932214;29;20487;-71
2022/10/23 05:52:25;;;;;;;10.10;8.70;;;;;;;;;;4932623;29;20622;-71
2022/10/23 05:55:20;;;;;;;10.77;9.60;;;;;;;;;;4926094;29;20849;-71
2022/10/23 05:58:13;;;;;;;12.13;9.83;;;;;;;;;;4912861;29;20460;-71
2022/10/23 06:01:05;;;;;;;11.43;9.30;;;;;;;;;;4921453;29;20483;-68
2022/10/23 06:03:53;;;;;;;11.17;9.50;;;;;;;;;;4898307;29;20460;-68
2022/10/23 06:06:45;;;;;;;14.17;10.10;;;;;;;;;;4912103;29;20465;-68
2022/10/23 06:09:33;;;;;;;10.77;9.07;;;;;;;;;;4929270;29;20476;-69
2022/10/23 06:12:22;;;;;;;10.10;9.03;;;;;;;;;;4919777;29;20996;-67
2022/10/23 06:15:11;;;;;;;13.70;9.27;;;;;;;;;;4917662;29;20489;-68
2022/10/23 06:18:01;;;;;;;10.90;8.80;;;;;;;;;;4923888;29;20476;-68
2022/10/23 06:20:50;;;;;;;10.60;9.47;;;;;;;;;;4927525;29;20491;-67
2022/10/23 06:23:40;;;;;;;11.90;9.77;;;;;;;;;;4921719;29;20786;-69
2022/10/23 06:26:29;;;;;;;10.70;9.60;;;;;;;;;;4913560;29;20519;-68
2022/10/23 06:29:17;;;;;;;11.60;8.97;;;;;;;;;;4923028;29;20475;-69
2022/10/23 06:32:06;;;;;;;11.50;10.30;;;;;;;;;;4916568;29;20460;-68
2022/10/23 06:34:54;;;;;;;13.27;10.17;;;;;;;;;;4904671;29;20488;-69
2022/10/23 06:37:43;;;;;;;12.40;8.73;;;;;;;;;;4901991;29;20464;-68
2022/10/23 06:40:33;;;;;;;11.80;10.63;;;;;;;;;;4901831;29;21822;-67
2022/10/23 06:43:22;;;;;;;11.83;10.50;;;;;;;;;;4919063;29;20465;-68
2022/10/23 06:46:10;;;;;;;11.03;9.90;;;;;;;;;;4909820;29;20458;-68
2022/10/23 06:48:59;;;;;;;11.97;10.07;;;;;;;;;;4905321;29;20464;-67
2022/10/23 06:51:48;;;;;;;11.80;10.60;;;;;;;;;;4901509;29;20460;-67
2022/10/23 06:54:36;;;;;;;13.70;10.70;;;;;;;;;;4905886;29;20996;-68
2022/10/23 06:57:27;;;;;;;11.77;10.43;;;;;;;;;;4906870;29;20457;-69
2022/10/23 07:00:15;;;;;;;11.77;10.57;;;;;;;;;;4917078;29;20484;-67
2022/10/23 07:03:04;;;;;;;12.30;9.53;;;;;;;;;;4919545;29;20460;-68
2022/10/23 07:05:53;;;;;;;10.93;9.83;;;;;;;;;;4911031;29;20459;-68
2022/10/23 07:08:41;;;;;;;10.50;9.20;;;;;;;;;;4912787;29;20838;-68
2022/10/23 07:11:30;;;;;;;11.27;10.07;;;;;;;;;;4913242;29;21019;-68
2022/10/23 07:14:20;;;;;;;11.10;9.50;;;;;;;;;;4901937;29;20512;-68
2022/10/23 07:17:08;;;;;;;13.10;9.70;;;;;;;;;;4908296;29;20547;-67
2022/10/23 07:19:57;;;;;;;10.97;9.70;;;;;;;;;;4915889;29;20500;-68
2022/10/23 07:22:50;;;;;;;12.10;10.90;;;;;;;;;;4918838;29;20473;-68
2022/10/23 07:25:39;;;;;;;13.83;9.20;;;;;;;;;;4922010;29;20453;-68
2022/10/23 07:28:27;;;;;;;10.00;8.90;;;;;;;;;;4919106;29;20466;-68
2022/10/23 07:31:17;;;;;;;11.57;10.37;;;;;;;;;;4910919;29;20481;-67
2022/10/23 07:34:06;;;;;;;10.50;9.40;;;;;;;;;;4907652;29;20461;-68
2022/10/23 07:36:55;;;;;;;14.77;9.10;;;;;;;;;;4900199;29;20873;-67
2022/10/23 07:39:44;;;;;;;11.20;9.53;;;;;;;;;;4914178;29;20472;-68
2022/10/23 07:42:32;;;;;;;10.47;9.40;;;;;;;;;;4919147;29;20453;-67
2022/10/23 07:45:21;;;;;;;9.53;8.53;;;;;;;;;;4921654;29;20460;-68
2022/10/23 07:48:11;;;;;;;11.87;8.80;;;;;;;;;;4919324;29;20470;-68
2022/10/23 07:51:00;;;;;;;10.43;8.80;;;;;;;;;;4914226;29;20485;-68
2022/10/23 07:53:49;;;;;;;11.10;8.43;;;;;;;;;;4915901;29;21003;-69
2022/10/23 07:56:38;;;;;;;9.07;8.17;;;;;;;;;;4919266;29;20460;-68
2022/10/23 07:59:27;;;;;;;12.10;8.67;;;;;;;;;;4911627;29;20875;-69
2022/10/23 08:02:16;;;;;;;9.47;8.40;;;;;;;;;;4919647;29;20547;-68
2022/10/23 08:05:06;;;;;;;11.57;9.03;;;;;;;;;;4914603;29;20460;-68
2022/10/23 08:07:55;;;;;;;9.60;8.27;;;;;;;;;;4917551;29;20449;-68
2022/10/23 08:10:43;;;;;;;12.87;8.93;;;;;;;;;;4909151;29;20476;-68
2022/10/23 08:13:32;;;;;;;10.40;8.53;;;;;;;;;;4922065;29;20456;-67
2022/10/23 08:16:21;;;;;;;9.50;8.40;;;;;;;;;;4919297;29;20500;-69
2022/10/23 08:19:12;;;;;;;9.07;7.67;;;;;;;;;;4922462;29;20469;-70
2022/10/23 08:22:02;;;;;;;11.03;8.30;;;;;;;;;;4927480;29;20468;-70
2022/10/23 08:24:51;;;;;;;13.67;8.17;;;;;;;;;;4918683;29;20602;-70
2022/10/23 08:27:41;;;;;;;10.60;8.37;;;;;;;;;;4920235;29;20481;-69
2022/10/23 08:30:30;;;;;;;9.50;7.73;;;;;;;;;;4919040;29;20502;-69
2022/10/23 08:33:18;;;;;;;10.40;8.67;;;;;;;;;;4916175;29;20618;-69
2022/10/23 08:36:15;;;;;;;8.93;8.00;;;;;;;;;;4919258;29;20501;-69
2022/10/23 08:39:06;;;;;;;9.73;8.03;;;;;;;;;;4901584;29;23921;-68
2022/10/23 08:41:54;;;;;;;8.67;7.67;;;;;;;;;;4914920;29;20449;-69
2022/10/23 08:44:47;;;;;;;8.30;7.50;;;;;;;;;;4919461;29;20910;-69
2022/10/23 08:47:39;;;;;;;9.07;7.80;;;;;;;;;;4908070;29;20469;-69
2022/10/23 08:50:28;;;;;;;11.13;8.07;;;;;;;;;;4913438;29;20544;-69
2022/10/23 08:53:24;;;;;;;11.13;8.17;;;;;;;;;;4914107;29;20461;-68
2022/10/23 08:56:16;;;;;;;8.67;7.50;;;;;;;;;;4911830;29;20503;-67
2022/10/23 08:59:10;;;;;;;7.87;7.03;;;;;;;;;;4906923;29;20945;-68
2022/10/23 09:02:00;;;;;;;8.43;7.50;;;;;;;;;;4892219;29;20485;-68
2022/10/23 09:04:51;;;;;;;9.17;7.53;;;;;;;;;;4890381;29;20473;-69
2022/10/23 09:07:40;;;;;;;6.70;6.10;;;;;;;;;;4888062;29;21278;-69
2022/10/23 09:10:34;;;;;;;7.63;6.90;;;;;;;;;;4889756;29;20517;-69
2022/10/23 09:13:35;;;;;;;8.50;6.63;;;;;;;;;;4900598;29;20641;-69
2022/10/23 09:16:29;;;;;;;7.50;6.80;;;;;;;;;;4898747;29;20497;-69
2022/10/23 09:19:18;;;;;;;7.93;6.07;;;;;;;;;;4896400;29;20485;-68
2022/10/23 09:22:07;;;;;;;6.50;5.90;;;;;;;;;;4900649;29;20620;-68
2022/10/23 09:24:56;;;;;;;9.37;6.10;;;;;;;;;;4899523;29;20469;-68
2022/10/23 09:27:47;;;;;;;6.27;5.30;;;;;;;;;;4897627;29;20560;-68
2022/10/23 09:30:42;;;;;;;8.90;5.47;;;;;;;;;;4899686;29;21037;-68
2022/10/23 09:33:33;;;;;;;6.03;5.47;;;;;;;;;;4902525;29;20497;-68
2022/10/23 09:36:23;;;;;;;8.40;5.90;;;;;;;;;;4891044;29;20844;-68
2022/10/23 09:39:20;;;;;;;5.63;5.10;;;;;;;;;;4889242;29;20489;-68
2022/10/23 09:42:15;;;;;;;9.13;6.07;;;;;;;;;;4893476;29;20453;-69
2022/10/23 09:45:04;;;;;;;5.20;4.70;;;;;;;;;;4902365;29;20461;-69
2022/10/23 09:48:03;;;;;;;5.67;5.17;;;;;;;;;;4905972;29;23106;-69
2022/10/23 09:50:53;;;;;;;6.80;5.10;;;;;;;;;;4901451;29;20485;-68
2022/10/23 09:53:48;;;;;;;6.13;5.43;;;;;;;;;;4879388;29;20465;-69
2022/10/23 09:56:40;;;;;;;7.83;5.30;;;;;;;;;;4901810;29;20589;-69
2022/10/23 09:59:30;;;;;;;9.93;5.83;;;;;;;;;;4899951;29;20572;-69
2022/10/23 10:02:21;;;;;;;6.63;5.23;;;;;;;;;;4900199;29;20465;-69
2022/10/23 10:05:24;;;;;;;8.40;6.00;;;;;;;;;;4878075;29;20856;-68
2022/10/23 10:08:15;;;;;;;5.87;5.37;;;;;;;;;;4893853;29;20563;-69
2022/10/23 10:11:07;;;;;;;5.63;5.07;;;;;;;;;;4895245;29;20636;-69
2022/10/23 10:14:03;;;;;;;6.73;5.17;;;;;;;;;;4890581;29;20453;-68
2022/10/23 10:16:54;;;;;;;10.60;5.37;;;;;;;;;;4897875;29;20545;-69
2022/10/23 10:19:50;;;;;;;9.40;5.60;;;;;;;;;;4884372;29;20558;-69
2022/10/23 10:22:42;;;;;;;7.03;5.73;;;;;;;;;;4900655;29;20449;-69
2022/10/23 10:25:35;;;;;;;5.90;5.27;;;;;;;;;;4892732;29;21094;-69
2022/10/23 10:28:46;;;;;;;6.60;5.50;;;;;;;;;;4895772;29;20747;-68
2022/10/23 10:31:40;;;;;;;6.10;5.53;;;;;;;;;;4898168;29;20488;-69
2022/10/23 10:34:30;;;;;;;6.23;5.57;;;;;;;;;;4897053;29;20501;-69
2022/10/23 10:37:23;;;;;;;7.40;5.83;;;;;;;;;;4890117;29;20515;-70
2022/10/23 10:40:19;;;;;;;5.53;4.93;;;;;;;;;;4897510;29;20496;-70
2022/10/23 10:43:16;;;;;;;6.87;5.10;;;;;;;;;;4892106;29;20473;-67
2022/10/23 10:46:08;;;;;;;6.67;5.53;;;;;;;;;;4890784;29;20465;-69
2022/10/23 10:49:00;;;;;;;6.60;4.50;;;;;;;;;;4894535;29;20485;-70
2022/10/23 10:51:58;;;;;;;6.20;4.67;;;;;;;;;;4895523;29;20504;-70
2022/10/23 10:54:52;;;;;;;7.07;5.30;;;;;;;;;;4885955;29;20977;-69
2022/10/23 10:57:43;;;;;;;4.80;4.33;;;;;;;;;;4891845;29;20489;-69
2022/10/23 11:00:34;;;;;;;8.20;5.07;;;;;;;;;;4895878;29;20863;-69
2022/10/23 11:03:28;;;;;;;6.60;4.77;;;;;;;;;;4899385;29;21803;-70
2022/10/23 11:06:19;;;;;;;6.30;4.43;;;;;;;;;;4891350;29;20457;-70
2022/10/23 11:09:17;;;;;;;4.63;4.23;;;;;;;;;;4899904;29;21091;-70
2022/10/23 11:12:15;;;;;;;4.90;4.10;;;;;;;;;;4894153;29;20458;-69
2022/10/23 11:15:12;;;;;;;6.90;4.70;;;;;;;;;;4897161;29;20465;-70
2022/10/23 11:18:02;;;;;;;5.10;4.70;;;;;;;;;;4902759;29;20668;-70
2022/10/23 11:20:57;;;;;;;6.80;4.97;;;;;;;;;;4899860;29;20504;-70
2022/10/23 11:24:04;;;;;;;4.83;4.20;;;;;;;;;;4903179;29;20564;-70
2022/10/23 11:26:59;;;;;;;4.83;4.30;;;;;;;;;;4859623;29;20457;-70
2022/10/23 11:30:05;;;;;;;7.80;6.23;;;;;;;;;;4897306;29;20499;-70
2022/10/23 11:33:12;;;;;;;6.13;5.30;;;;;;;;;;4898716;29;20472;-71
2022/10/23 11:36:14;;;;;;;6.33;4.50;;;;;;;;;;4906046;29;20948;-70
2022/10/23 11:39:08;;;;;;;5.00;4.50;;;;;;;;;;4895545;29;20507;-70
2022/10/23 11:41:57;;;;;;;7.10;5.00;;;;;;;;;;4899060;29;20449;-70
2022/10/23 11:44:47;;;;;;;7.83;7.00;;;;;;;;;;4902631;29;20461;-70
2022/10/23 11:47:36;;;;;;;10.53;8.33;;;;;;;;;;4900124;29;20880;-71
2022/10/23 11:50:29;;;;;;;11.13;9.47;;;;;;;;;;4903981;29;20576;-70
2022/10/23 11:53:38;;;;;;;9.57;6.23;;;;;;;;;;4894917;29;20458;-69
2022/10/23 11:56:30;;;;;;;6.13;5.53;;;;;;;;;;4896832;29;20453;-70
2022/10/23 11:59:21;;;;;;;5.27;3.53;;;;;;;;;;4897007;29;20500;-71
2022/10/23 12:02:20;;;;;;;22.67;20.97;;;;;;;;;;4890264;29;20469;-70
2022/10/23 12:05:13;;;;;;;12.83;11.50;;;;;;;;;;4888850;29;20461;-71
2022/10/23 12:08:02;;;;;;;9.70;8.30;;;;;;;;;;4892940;29;20482;-70
2022/10/23 12:10:54;;;;;;;12.73;9.60;;;;;;;;;;4884974;29;20482;-69
2022/10/23 12:13:46;;;;;;;17.40;15.10;;;;;;;;;;4889788;29;20458;-70
2022/10/23 12:16:35;;;;;;;9.00;5.20;;;;;;;;;;4890626;29;21057;-70
2022/10/23 12:19:27;;;;;;;5.43;4.90;;;;;;;;;;4886928;29;21020;-71
2022/10/23 12:22:19;;;;;;;6.93;5.10;;;;;;;;;;4893776;29;21005;-70
2022/10/23 12:25:12;;;;;;;5.10;4.47;;;;;;;;;;4887020;29;20981;-71
2022/10/23 12:28:06;;;;;;;6.93;4.90;;;;;;;;;;4895441;29;20500;-71
2022/10/23 12:30:58;;;;;;;9.90;4.20;;;;;;;;;;4881112;29;20509;-72
2022/10/23 12:33:50;;;;;;;4.30;3.90;;;;;;;;;;4872607;29;20461;-73
2022/10/23 12:36:53;;;;;;;5.00;3.67;;;;;;;;;;4882669;29;23093;-73
2022/10/23 12:39:42;;;;;;;3.80;3.50;;;;;;;;;;4879274;29;20481;-73
2022/10/23 12:42:31;;;;;;;5.77;3.30;;;;;;;;;;4870649;29;20461;-72
2022/10/23 12:45:23;;;;;;;15.17;12.33;;;;;;;;;;4882604;29;20473;-73
2022/10/23 12:48:19;;;;;;;6.00;5.40;;;;;;;;;;4888108;29;20485;-72
2022/10/23 12:51:07;;;;;;;8.60;7.90;;;;;;;;;;4879804;29;22384;-71
2022/10/23 12:53:56;;;;;;;28.00;25.30;;;;;;;;;;4871879;29;20469;-72
2022/10/23 12:56:45;;;;;;;23.27;20.87;;;;;;;;;;4879445;29;20465;-71
2022/10/23 12:59:36;;;;;;;14.13;12.77;;;;;;;;;;4878965;29;21015;-71
2022/10/23 13:02:27;;;;;;;10.83;9.70;;;;;;;;;;4881271;29;22034;-72
2022/10/23 13:05:18;;;;;;;8.87;5.40;;;;;;;;;;4872014;29;20473;-71
2022/10/23 13:08:07;;;;;;;4.40;4.00;;;;;;;;;;4866587;29;20485;-74
2022/10/23 13:10:56;;;;;;;3.50;3.20;;;;;;;;;;4885396;29;21079;-81
2022/10/23 13:13:44;;;;;;;5.60;3.67;;;;;;;;;;4882209;29;20473;-77
2022/10/23 13:16:33;;;;;;;5.40;3.70;;;;;;;;;;4883715;29;20549;-74
2022/10/23 13:19:26;;;;;;;6.60;3.50;;;;;;;;;;4880919;29;20943;-77
2022/10/23 13:22:17;;;;;;;4.20;3.07;;;;;;;;;;4875661;29;20457;-72
2022/10/23 13:25:22;;;;;;;6.13;4.07;;;;;;;;;;4878936;29;21820;-74
2022/10/23 13:28:21;;;;;;;4.73;4.00;;;;;;;;;;4875587;29;21115;-77
2022/10/23 13:31:25;;;;;;;4.70;3.60;;;;;;;;;;4874770;29;20489;-74
2022/10/23 13:34:23;;;;;;;3.50;3.00;;;;;;;;;;4875055;29;21592;-74
2022/10/23 13:37:24;;;;;;;4.77;3.30;;;;;;;;;;4875727;29;20516;-76
2022/10/23 13:40:22;;;;;;;4.90;3.53;;;;;;;;;;4884510;29;20477;-75
2022/10/23 13:43:19;;;;;;;5.47;3.60;;;;;;;;;;4873638;29;20591;-75
2022/10/23 13:46:13;;;;;;;4.10;3.40;;;;;;;;;;4874503;29;21605;-78
2022/10/23 13:49:04;;;;;;;3.70;3.40;;;;;;;;;;4860799;29;20531;-75
2022/10/23 13:51:56;;;;;;;6.63;3.43;;;;;;;;;;4867388;29;21161;-73
2022/10/23 13:54:46;;;;;;;5.43;3.30;;;;;;;;;;4859399;29;20512;-70
2022/10/23 13:57:38;;;;;;;3.67;3.20;;;;;;;;;;4878190;29;20572;-69
2022/10/23 14:00:27;;;;;;;4.63;3.27;;;;;;;;;;4882515;29;20489;-70
2022/10/23 14:03:16;;;;;;;3.87;2.90;;;;;;;;;;4886864;29;24291;-71
2022/10/23 14:06:04;;;;;;;6.53;3.90;;;;;;;;;;4889611;29;20477;-68
2022/10/23 14:08:53;;;;;;;5.20;3.13;;;;;;;;;;4889493;29;20528;-69
2022/10/23 14:11:46;;;;;;;4.17;3.10;;;;;;;;;;4894488;29;22333;-69
2022/10/23 14:14:35;;;;;;;4.30;3.40;;;;;;;;;;4895305;29;20504;-69
2022/10/23 14:17:23;;;;;;;5.33;3.50;;;;;;;;;;4896714;29;21104;-70
2022/10/23 14:20:15;;;;;;;7.17;3.50;;;;;;;;;;4888098;29;20492;-70
2022/10/23 14:23:07;;;;;;;4.00;3.60;;;;;;;;;;4890984;29;20473;-72
2022/10/23 14:26:01;;;;;;;3.47;3.17;;;;;;;;;;4891336;29;21024;-69
2022/10/23 14:28:53;;;;;;;7.63;4.03;;;;;;;;;;4892041;29;22311;-68
2022/10/23 14:31:42;;;;;;;7.80;4.13;;;;;;;;;;4896941;29;20992;-69
2022/10/23 14:34:33;;;;;;;13.90;3.90;;;;;;;;;;4895754;29;20457;-70
2022/10/23 14:37:23;;;;;;;5.53;3.70;;;;;;;;;;4887789;29;20461;-72
2022/10/23 14:40:12;;;;;;;4.70;3.50;;;;;;;;;;4893955;29;20488;-71
2022/10/23 14:43:00;;;;;;;3.43;3.00;;;;;;;;;;4882894;29;20549;-71
2022/10/23 14:45:50;;;;;;;4.07;2.90;;;;;;;;;;4879838;29;20461;-70
2022/10/23 14:48:39;;;;;;;5.73;4.00;;;;;;;;;;4884285;29;20540;-71
2022/10/23 14:51:28;;;;;;;3.93;3.57;;;;;;;;;;4882167;29;21024;-71
2022/10/23 14:54:17;;;;;;;4.60;3.37;;;;;;;;;;4890016;29;20469;-71
2022/10/23 14:57:06;;;;;;;5.83;3.33;;;;;;;;;;4890737;29;20520;-72
2022/10/23 14:59:54;;;;;;;8.20;4.63;;;;;;;;;;4861570;29;20494;-72
2022/10/23 15:02:44;;;;;;;5.20;3.93;;;;;;;;;;4871328;29;20474;-72
2022/10/23 15:05:35;;;;;;;7.57;3.80;;;;;;;;;;4864170;29;21012;-71
2022/10/23 15:08:26;;;;;;;6.30;3.47;;;;;;;;;;4874025;29;20544;-71
2022/10/23 15:11:16;;;;;;;4.63;3.60;;;;;;;;;;4884178;29;23262;-71
2022/10/23 15:14:05;;;;;;;5.10;3.90;;;;;;;;;;4886169;29;20612;-70
2022/10/23 15:16:53;;;;;;;8.37;3.93;;;;;;;;;;4890189;29;21575;-72
2022/10/23 15:19:43;;;;;;;4.37;3.97;;;;;;;;;;4879497;29;20485;-70
2022/10/23 15:22:32;;;;;;;4.50;3.47;;;;;;;;;;4885472;29;20489;-72
2022/10/23 15:25:20;;;;;;;7.07;3.87;;;;;;;;;;4884040;29;20547;-70
2022/10/23 15:28:09;;;;;;;5.60;3.90;;;;;;;;;;4877231;29;22309;-70
2022/10/23 15:30:57;;;;;;;8.27;4.10;;;;;;;;;;4890222;29;20493;-69
2022/10/23 15:33:48;;;;;;;4.80;4.40;;;;;;;;;;4878092;29;20519;-70
2022/10/23 15:36:38;;;;;;;4.60;3.93;;;;;;;;;;4882476;29;20450;-70
2022/10/23 15:39:32;;;;;;;5.03;4.40;;;;;;;;;;4874283;29;20504;-69
2022/10/23 15:42:21;;;;;;;5.77;4.10;;;;;;;;;;4888733;29;20480;-69
2022/10/23 15:45:11;;;;;;;5.73;3.87;;;;;;;;;;4871474;29;20469;-70
2022/10/23 15:47:59;;;;;;;4.97;4.50;;;;;;;;;;4884739;29;20486;-70
2022/10/23 15:50:48;;;;;;;9.60;4.73;;;;;;;;;;4872745;29;20520;-68
2022/10/23 15:53:38;;;;;;;7.33;4.57;;;;;;;;;;4884393;29;20489;-68
2022/10/23 15:56:27;;;;;;;7.80;4.30;;;;;;;;;;4884759;29;20466;-69
2022/10/23 15:59:16;;;;;;;6.30;4.03;;;;;;;;;;4875985;29;20936;-70
2022/10/23 16:02:04;;;;;;;5.53;4.37;;;;;;;;;;4879912;29;20537;-69
2022/10/23 16:04:57;;;;;;;6.90;4.40;;;;;;;;;;4878390;29;20461;-68
2022/10/23 16:07:46;;;;;;;4.53;4.13;;;;;;;;;;4878052;29;20565;-68
2022/10/23 16:10:43;;;;;;;4.60;4.20;;;;;;;;;;4870250;29;22320;-69
2022/10/23 16:13:31;;;;;;;6.90;4.40;;;;;;;;;;4865895;29;20480;-69
2022/10/23 16:16:20;;;;;;;6.20;4.17;;;;;;;;;;4883083;29;20577;-69
2022/10/23 16:19:10;;;;;;;5.77;4.67;;;;;;;;;;4876911;29;20517;-69
2022/10/23 16:21:59;;;;;;;5.00;4.60;;;;;;;;;;4876260;29;21036;-69
2022/10/23 16:24:47;;;;;;;5.50;4.70;;;;;;;;;;4875376;29;20461;-69
2022/10/23 16:27:40;;;;;;;5.90;4.40;;;;;;;;;;4886295;29;20457;-68
2022/10/23 16:30:29;;;;;;;7.63;4.40;;;;;;;;;;4884333;29;20542;-69
2022/10/23 16:33:17;;;;;;;6.87;4.87;;;;;;;;;;4878321;29;22241;-68
2022/10/23 16:36:07;;;;;;;11.77;5.40;;;;;;;;;;4883495;29;20473;-69
2022/10/23 16:38:55;;;;;;;6.40;5.80;;;;;;;;;;4885375;29;20925;-68
2022/10/23 16:41:47;;;;;;;10.13;9.20;;;;;;;;;;4876823;29;20472;-68
2022/10/23 16:44:36;;;;;;;7.33;4.77;;;;;;;;;;4871944;29;20458;-69
2022/10/23 16:47:25;;;;;;;6.47;4.63;;;;;;;;;;4865261;29;20777;-69
2022/10/23 16:50:15;;;;;;;6.20;4.70;;;;;;;;;;4865909;29;20517;-69
2022/10/23 16:53:04;;;;;;;7.10;4.70;;;;;;;;;;4858184;29;20472;-68
2022/10/23 16:55:52;;;;;;;6.60;4.77;;;;;;;;;;4861583;29;20462;-68
2022/10/23 16:58:41;;;;;;;5.87;4.80;;;;;;;;;;4868664;29;21040;-69
2022/10/23 17:01:32;;;;;;;7.10;4.87;;;;;;;;;;4865621;29;20454;-69
2022/10/23 17:04:21;;;;;;;9.13;5.30;;;;;;;;;;4876275;29;20457;-70